Time;durP1;ratioP1;P1;durP2;ratioP2;P2;SDS_P1;SDS_P2;PMS_P1;PMS_P2;Temp;Humidity;BMP_temperature;BMP_pressure;BME280_temperature;BME280_humidity;BME280_pressure;Samples;Min_cycle;Max_cycle;Signal;HPM_P1;HPM_P2
2022/07/26 00:02:11;;;;;;;10.10;9.80;;;23.90;99.90;;;;;;5022240;28;20315;-80
2022/07/26 00:04:39;;;;;;;10.18;9.88;;;23.90;99.90;;;;;;5022656;28;20223;-80
2022/07/26 00:07:06;;;;;;;10.05;9.75;;;23.90;99.90;;;;;;5022026;28;20322;-80
2022/07/26 00:09:34;;;;;;;10.00;9.70;;;23.80;99.90;;;;;;5022361;28;20323;-80
2022/07/26 00:12:01;;;;;;;10.20;9.90;;;23.80;99.90;;;;;;5022303;28;20326;-81
2022/07/26 00:14:29;;;;;;;10.40;10.10;;;23.80;99.90;;;;;;5021368;28;20224;-80
2022/07/26 00:16:58;;;;;;;10.27;9.98;;;23.70;99.90;;;;;;5020475;28;20267;-78
2022/07/26 00:19:25;;;;;;;10.00;9.70;;;23.70;99.90;;;;;;5016335;28;20287;-78
2022/07/26 00:24:34;;;;;;;10.13;9.82;;;23.70;99.90;;;;;;5015704;28;20255;-78
2022/07/26 00:27:01;;;;;;;10.07;9.77;;;23.70;99.90;;;;;;5016799;28;20327;-78
2022/07/26 00:29:29;;;;;;;9.65;9.35;;;23.70;99.90;;;;;;5016686;28;20339;-78
2022/07/26 00:31:58;;;;;;;9.60;9.30;;;23.70;99.90;;;;;;5016779;28;20228;-78
2022/07/26 00:34:26;;;;;;;9.57;9.27;;;23.60;99.90;;;;;;5016370;28;20232;-78
2022/07/26 00:36:53;;;;;;;9.70;9.40;;;23.60;99.90;;;;;;5017112;28;20299;-77
2022/07/26 00:39:20;;;;;;;9.77;9.48;;;23.60;99.90;;;;;;5017990;28;20323;-80
2022/07/26 00:41:48;;;;;;;9.73;9.43;;;23.50;99.90;;;;;;5021984;28;20284;-81
2022/07/26 00:44:15;;;;;;;9.70;9.40;;;23.50;99.90;;;;;;5021691;28;20224;-80
2022/07/26 00:46:43;;;;;;;9.60;9.30;;;23.40;99.90;;;;;;5021941;28;20235;-80
2022/07/26 00:49:13;;;;;;;9.70;9.40;;;23.40;99.90;;;;;;5022079;28;20300;-80
2022/07/26 00:51:40;;;;;;;9.60;9.30;;;23.30;99.90;;;;;;5021875;28;20224;-80
2022/07/26 00:54:08;;;;;;;9.50;9.20;;;23.30;99.90;;;;;;5021584;28;20240;-80
2022/07/26 00:56:36;;;;;;;9.52;9.23;;;23.20;99.90;;;;;;5021515;28;20232;-80
2022/07/26 00:59:04;;;;;;;9.57;9.27;;;23.20;99.90;;;;;;5020987;28;20299;-80
2022/07/26 01:01:31;;;;;;;9.50;9.20;;;23.10;99.90;;;;;;5021963;28;20228;-81
2022/07/26 01:03:59;;;;;;;9.40;9.10;;;23.10;99.90;;;;;;5025095;28;20285;-80
2022/07/26 01:06:28;;;;;;;9.27;8.98;;;23.10;99.90;;;;;;5024633;28;20322;-77
2022/07/26 01:08:56;;;;;;;9.30;9.00;;;23.10;99.90;;;;;;5018535;28;20247;-78
2022/07/26 01:11:23;;;;;;;9.45;9.15;;;23.10;99.90;;;;;;5018654;28;20246;-78
2022/07/26 01:13:51;;;;;;;9.70;9.40;;;23.10;99.90;;;;;;5018420;28;20224;-78
2022/07/26 01:16:19;;;;;;;9.60;9.30;;;23.10;99.90;;;;;;5016842;28;20238;-78
2022/07/26 01:18:46;;;;;;;9.85;9.55;;;23.10;99.90;;;;;;5016267;28;20727;-79
2022/07/26 01:21:14;;;;;;;9.60;9.30;;;23.10;99.90;;;;;;5016080;28;20287;-78
2022/07/26 01:23:44;;;;;;;9.70;9.40;;;23.10;99.90;;;;;;5016298;28;20238;-78
2022/07/26 01:26:11;;;;;;;9.60;9.30;;;23.10;99.90;;;;;;5015654;28;20234;-78
2022/07/26 01:28:40;;;;;;;9.52;9.23;;;23.00;99.90;;;;;;5016096;28;20271;-78
2022/07/26 01:31:08;;;;;;;9.52;9.23;;;23.00;99.90;;;;;;5022249;28;20242;-80
2022/07/26 01:33:36;;;;;;;9.50;9.20;;;22.90;99.90;;;;;;5031755;28;20300;-81
2022/07/26 01:36:04;;;;;;;9.60;9.30;;;22.90;99.90;;;;;;5030728;28;20260;-80
2022/07/26 01:38:32;;;;;;;9.50;9.20;;;22.90;99.90;;;;;;5026612;28;20252;-80
2022/07/26 01:41:01;;;;;;;9.40;9.10;;;22.90;99.90;;;;;;5026414;28;20260;-80
2022/07/26 01:43:29;;;;;;;9.35;9.05;;;22.80;99.90;;;;;;5024907;28;20251;-81
2022/07/26 01:45:57;;;;;;;9.60;9.30;;;22.80;99.90;;;;;;5024860;28;20232;-81
2022/07/26 01:48:24;;;;;;;9.43;9.13;;;22.80;99.90;;;;;;5024628;28;20236;-80
2022/07/26 01:50:52;;;;;;;9.65;9.35;;;22.70;99.90;;;;;;5024436;28;20252;-81
2022/07/26 01:53:20;;;;;;;9.65;9.35;;;22.70;99.90;;;;;;5024933;28;20228;-81
2022/07/26 01:55:47;;;;;;;9.60;9.30;;;22.70;99.90;;;;;;5025066;28;20595;-80
2022/07/26 01:58:17;;;;;;;9.50;9.20;;;22.70;99.90;;;;;;5024657;28;20740;-81
2022/07/26 02:00:45;;;;;;;9.50;9.20;;;22.60;99.90;;;;;;5024679;28;20290;-81
2022/07/26 02:03:12;;;;;;;9.82;9.52;;;22.60;99.90;;;;;;5026584;28;20286;-80
2022/07/26 02:05:40;;;;;;;9.60;9.30;;;22.50;99.90;;;;;;5038911;28;20263;-80
2022/07/26 02:08:08;;;;;;;9.48;9.18;;;22.50;99.90;;;;;;5039823;28;20232;-80
2022/07/26 02:13:24;;;;;;;9.68;9.38;;;22.40;99.90;;;;;;5036578;28;20228;-80
2022/07/26 02:15:52;;;;;;;9.82;9.52;;;22.40;99.90;;;;;;5040304;28;20240;-81
2022/07/26 02:18:19;;;;;;;9.90;9.60;;;22.40;99.90;;;;;;5040824;28;20240;-80
2022/07/26 02:20:47;;;;;;;9.65;9.35;;;22.40;99.90;;;;;;5040458;28;20252;-80
2022/07/26 02:23:15;;;;;;;9.65;9.35;;;22.40;99.90;;;;;;5040384;28;20220;-80
2022/07/26 02:25:42;;;;;;;9.80;9.50;;;22.40;99.90;;;;;;5040166;28;20231;-80
2022/07/26 02:28:10;;;;;;;9.80;9.50;;;22.40;99.90;;;;;;5040503;28;20287;-80
2022/07/26 02:30:39;;;;;;;10.20;9.90;;;22.30;99.90;;;;;;5040339;28;20216;-80
2022/07/26 02:33:11;;;;;;;9.90;9.60;;;22.30;99.90;;;;;;5038799;28;20255;-80
2022/07/26 02:35:39;;;;;;;9.90;9.60;;;22.20;99.90;;;;;;5032619;28;20233;-80
2022/07/26 02:38:10;;;;;;;9.85;9.55;;;22.30;99.90;;;;;;5038202;28;20247;-81
2022/07/26 02:40:40;;;;;;;9.90;9.60;;;22.20;99.90;;;;;;5038977;28;20232;-80
2022/07/26 02:43:09;;;;;;;9.75;9.45;;;22.30;99.90;;;;;;5037447;28;20220;-80
2022/07/26 02:45:39;;;;;;;10.10;9.80;;;22.20;99.90;;;;;;5033415;28;20235;-80
2022/07/26 02:48:07;;;;;;;10.10;9.80;;;22.20;99.90;;;;;;5029618;28;20256;-81
2022/07/26 02:50:35;;;;;;;9.90;9.60;;;22.10;99.90;;;;;;5028355;28;20244;-81
2022/07/26 02:53:03;;;;;;;10.20;9.90;;;22.10;99.90;;;;;;5026798;28;20227;-80
2022/07/26 02:55:31;;;;;;;10.02;9.73;;;22.10;99.90;;;;;;5026037;28;20239;-80
2022/07/26 02:57:59;;;;;;;10.00;9.70;;;22.00;99.90;;;;;;5025192;28;20238;-81
2022/07/26 03:00:27;;;;;;;9.80;9.50;;;22.00;99.90;;;;;;5025606;28;20228;-81
2022/07/26 03:02:56;;;;;;;9.60;9.30;;;22.00;99.90;;;;;;5025896;28;20236;-80
2022/07/26 03:05:24;;;;;;;9.52;9.23;;;22.00;99.90;;;;;;5026589;28;20321;-80
2022/07/26 03:07:52;;;;;;;9.40;9.10;;;22.00;99.90;;;;;;5025861;28;20236;-80
2022/07/26 03:10:19;;;;;;;9.10;8.90;;;22.00;99.90;;;;;;5025396;28;20291;-80
2022/07/26 03:12:47;;;;;;;9.40;9.10;;;22.00;99.90;;;;;;5024885;28;20287;-80
2022/07/26 03:15:14;;;;;;;9.00;8.80;;;22.00;99.90;;;;;;5024380;28;20240;-80
2022/07/26 03:17:42;;;;;;;9.48;9.18;;;22.00;99.90;;;;;;5024990;28;20238;-79
2022/07/26 03:20:13;;;;;;;9.32;9.02;;;22.00;99.90;;;;;;5024273;28;20243;-80
2022/07/26 03:22:40;;;;;;;9.25;8.98;;;22.00;99.90;;;;;;5024785;28;20263;-80
2022/07/26 03:25:09;;;;;;;9.38;9.07;;;22.00;99.90;;;;;;5024893;28;20236;-80
2022/07/26 03:27:36;;;;;;;9.70;9.40;;;21.90;99.90;;;;;;5025109;28;20240;-80
2022/07/26 03:30:04;;;;;;;10.52;10.23;;;21.90;99.90;;;;;;5025081;28;20303;-80
2022/07/26 03:32:32;;;;;;;10.70;10.40;;;21.90;99.90;;;;;;5025560;28;20319;-80
2022/07/26 03:34:59;;;;;;;10.60;10.30;;;21.80;99.90;;;;;;5024806;28;20301;-80
2022/07/26 03:37:28;;;;;;;10.77;10.48;;;21.80;99.90;;;;;;5025386;28;20744;-80
2022/07/26 03:39:55;;;;;;;10.73;10.43;;;21.80;99.90;;;;;;5023692;28;20232;-79
2022/07/26 03:42:23;;;;;;;10.50;10.20;;;21.80;99.90;;;;;;5017147;28;20319;-80
2022/07/26 03:44:50;;;;;;;10.90;10.60;;;21.80;99.90;;;;;;5024855;28;20244;-80
2022/07/26 03:47:18;;;;;;;11.20;10.90;;;21.80;99.90;;;;;;5026070;28;20255;-80
2022/07/26 03:49:45;;;;;;;11.00;10.70;;;21.80;99.90;;;;;;5024298;28;20323;-80
2022/07/26 03:52:13;;;;;;;10.82;10.52;;;21.80;99.90;;;;;;5024791;28;20219;-80
2022/07/26 03:54:42;;;;;;;10.80;10.50;;;21.80;99.90;;;;;;5024882;28;20267;-80
2022/07/26 03:57:08;;;;;;;10.32;10.02;;;21.80;99.90;;;;;;5025211;28;20242;-80
2022/07/26 03:59:36;;;;;;;10.27;9.98;;;21.70;99.90;;;;;;5026239;28;20243;-81
2022/07/26 04:02:03;;;;;;;10.30;10.00;;;21.70;99.90;;;;;;5026225;28;20224;-80
2022/07/26 04:04:31;;;;;;;10.55;10.25;;;21.80;99.90;;;;;;5028681;28;20232;-80
2022/07/26 04:06:58;;;;;;;10.30;10.00;;;21.70;99.90;;;;;;5029467;28;20254;-80
2022/07/26 04:09:26;;;;;;;10.40;10.10;;;21.80;99.90;;;;;;5038726;28;20256;-79
2022/07/26 04:11:55;;;;;;;10.60;10.30;;;21.80;99.90;;;;;;5038903;28;20247;-80
2022/07/26 04:14:22;;;;;;;10.40;10.10;;;21.80;99.90;;;;;;5038877;28;20236;-80
2022/07/26 04:16:50;;;;;;;10.15;9.85;;;21.80;99.90;;;;;;5037855;28;20295;-80
2022/07/26 04:19:17;;;;;;;10.20;9.90;;;21.80;99.90;;;;;;5039077;28;20287;-81
2022/07/26 04:21:45;;;;;;;10.30;10.00;;;21.80;99.90;;;;;;5039206;28;20228;-80
2022/07/26 04:24:12;;;;;;;10.25;9.95;;;21.80;99.90;;;;;;5039391;28;20248;-80
2022/07/26 04:26:40;;;;;;;10.20;9.90;;;21.80;99.90;;;;;;5037388;28;20254;-80
2022/07/26 04:29:09;;;;;;;10.30;10.00;;;21.80;99.90;;;;;;5039508;28;20288;-80
2022/07/26 04:31:36;;;;;;;10.20;9.90;;;21.80;99.90;;;;;;5039292;28;20240;-80
2022/07/26 04:34:04;;;;;;;10.07;9.77;;;21.70;99.90;;;;;;5039493;28;20232;-80
2022/07/26 04:36:32;;;;;;;10.10;9.80;;;21.80;99.90;;;;;;5038827;28;20220;-80
2022/07/26 04:38:59;;;;;;;10.32;10.02;;;21.80;99.90;;;;;;5066284;22;20253;-82
2022/07/26 04:41:29;;;;;;;10.23;9.93;;;21.80;99.90;;;;;;5061231;28;20673;-82
2022/07/26 04:43:59;;;;;;;10.20;9.90;;;21.80;99.90;;;;;;5062992;28;20765;-82
2022/07/26 04:46:31;;;;;;;10.00;9.70;;;21.80;99.90;;;;;;5068417;28;20246;-82
2022/07/26 04:48:58;;;;;;;10.10;9.80;;;21.80;99.90;;;;;;5070778;28;20235;-82
2022/07/26 04:51:27;;;;;;;10.23;9.93;;;21.80;99.90;;;;;;5066232;28;20223;-82
2022/07/26 04:53:57;;;;;;;10.02;9.73;;;21.80;99.90;;;;;;5064268;28;20238;-83
2022/07/26 04:56:26;;;;;;;10.35;10.05;;;21.80;99.90;;;;;;5063149;28;20262;-83
2022/07/26 04:58:56;;;;;;;10.15;9.85;;;21.80;99.90;;;;;;5061253;28;20238;-84
2022/07/26 05:01:25;;;;;;;10.00;9.70;;;21.70;99.90;;;;;;5060642;28;20230;-84
2022/07/26 05:04:04;;;;;;;10.20;9.90;;;21.70;99.90;;;;;;5061033;28;20312;-84
2022/07/26 05:06:33;;;;;;;10.20;9.90;;;21.70;99.90;;;;;;5062899;28;20238;-85
2022/07/26 05:09:03;;;;;;;10.25;9.95;;;21.70;99.90;;;;;;5064788;28;20246;-84
2022/07/26 05:11:31;;;;;;;10.30;10.00;;;21.70;99.90;;;;;;5066752;28;20214;-84
2022/07/26 05:14:01;;;;;;;10.50;10.20;;;21.70;99.90;;;;;;5081918;28;20357;-84
2022/07/26 05:16:33;;;;;;;10.70;10.40;;;21.70;99.90;;;;;;5081951;28;20262;-84
2022/07/26 05:19:04;;;;;;;10.05;9.75;;;21.80;99.90;;;;;;5079699;28;20215;-84
2022/07/26 05:21:32;;;;;;;10.10;9.80;;;21.80;99.90;;;;;;5080884;28;20203;-84
2022/07/26 05:24:01;;;;;;;10.00;9.70;;;21.80;99.90;;;;;;5080086;28;20218;-84
2022/07/26 05:26:31;;;;;;;10.40;10.10;;;21.80;99.90;;;;;;5075779;28;20226;-84
2022/07/26 05:29:00;;;;;;;9.98;9.68;;;21.80;99.90;;;;;;5074133;28;20229;-84
2022/07/26 05:31:29;;;;;;;10.30;10.00;;;21.80;99.90;;;;;;5074111;28;20275;-84
2022/07/26 05:33:58;;;;;;;10.05;9.75;;;21.80;99.90;;;;;;5069551;28;20233;-84
2022/07/26 05:36:39;;;;;;;10.10;9.80;;;21.80;99.90;;;;;;5070837;28;20308;-83
2022/07/26 05:39:07;;;;;;;10.18;9.88;;;21.80;99.90;;;;;;5066061;28;20239;-84
2022/07/26 05:41:36;;;;;;;10.38;10.07;;;21.80;99.90;;;;;;5064501;28;20265;-83
2022/07/26 05:44:06;;;;;;;10.15;9.85;;;21.90;99.90;;;;;;5062841;28;20238;-83
2022/07/26 05:49:22;;;;;;;10.35;10.05;;;21.80;99.90;;;;;;5076625;28;20294;-83
2022/07/26 05:51:53;;;;;;;10.15;9.85;;;21.90;99.90;;;;;;5077311;28;20215;-83
2022/07/26 05:54:21;;;;;;;9.98;9.68;;;21.80;99.90;;;;;;5066050;28;20231;-83
2022/07/26 05:56:50;;;;;;;10.20;9.90;;;21.80;99.90;;;;;;5065015;28;20251;-83
2022/07/26 05:59:19;;;;;;;10.20;9.90;;;21.80;99.90;;;;;;5063720;28;20246;-83
2022/07/26 06:01:58;;;;;;;10.13;9.82;;;21.70;99.90;;;;;;5064170;28;20254;-82
2022/07/26 06:08:09;;;;;;;10.30;10.00;;;21.70;99.90;;;;;;5061471;28;20411;-85
2022/07/26 06:13:49;;;;;;;10.30;10.00;;;21.70;99.90;;;;;;5034694;28;20219;-86
2022/07/26 06:16:48;;;;;;;10.20;9.90;;;21.70;99.90;;;;;;5045259;28;20223;-85
2022/07/26 06:23:31;;;;;;;10.25;9.95;;;21.70;99.90;;;;;;4923194;28;20287;-84
2022/07/26 06:25:59;;;;;;;10.20;9.90;;;21.50;99.90;;;;;;4976338;28;20214;-83
2022/07/26 06:28:28;;;;;;;9.90;9.60;;;21.40;99.90;;;;;;5046041;28;20282;-84
2022/07/26 06:30:58;;;;;;;10.18;9.88;;;21.40;99.90;;;;;;5045901;28;20297;-84
2022/07/26 06:33:27;;;;;;;10.10;9.80;;;21.40;99.90;;;;;;5044347;28;20234;-84
2022/07/26 06:35:56;;;;;;;10.00;9.70;;;21.40;99.90;;;;;;5043574;28;20239;-84
2022/07/26 06:41:44;;;;;;;10.40;10.10;;;21.30;99.90;;;;;;5057927;28;20245;-83
2022/07/26 06:44:38;;;;;;;10.20;9.90;;;21.40;99.90;;;;;;5061949;28;20215;-82
2022/07/26 06:47:18;;;;;;;10.60;10.30;;;21.50;99.90;;;;;;5060121;28;20226;-81
2022/07/26 06:50:05;;;;;;;10.30;10.00;;;21.50;99.90;;;;;;5061934;28;20285;-81
2022/07/26 06:52:33;;;;;;;10.57;10.27;;;21.60;99.90;;;;;;5062341;28;20243;-81
2022/07/26 06:59:38;;;;;;;10.60;10.30;;;21.80;99.90;;;;;;5043078;28;20227;-81
2022/07/26 07:18:39;;;;;;;10.25;9.95;;;22.60;99.90;;;;;;5041649;28;20224;-81
2022/07/26 07:21:07;;;;;;;11.00;10.70;;;22.70;99.90;;;;;;5042757;28;20267;-83
2022/07/26 07:23:46;;;;;;;10.70;10.40;;;22.80;99.90;;;;;;5043249;28;20323;-83
2022/07/26 07:26:18;;;;;;;10.85;10.55;;;22.90;99.90;;;;;;5043031;28;20223;-81
2022/07/26 07:28:46;;;;;;;10.65;10.35;;;23.00;99.90;;;;;;5042156;28;20243;-80
2022/07/26 07:31:22;;;;;;;10.85;10.55;;;23.20;99.90;;;;;;5043121;28;20262;-82
2022/07/26 07:36:47;;;;;;;10.65;10.35;;;23.60;99.90;;;;;;5045620;28;20239;-83
2022/07/26 07:39:20;;;;;;;11.00;10.70;;;23.80;99.90;;;;;;5055821;28;20368;-81
2022/07/26 07:41:54;;;;;;;10.88;10.57;;;23.90;99.90;;;;;;5064936;28;20262;-80
2022/07/26 07:44:23;;;;;;;10.43;10.13;;;24.10;99.90;;;;;;5074450;28;20207;-79
2022/07/26 07:47:05;;;;;;;10.65;10.35;;;24.20;99.90;;;;;;5077562;28;20257;-81
2022/07/26 07:49:58;;;;;;;10.77;10.48;;;24.30;99.90;;;;;;5078510;28;20230;-82
2022/07/26 07:55:14;;;;;;;10.85;10.55;;;24.50;99.90;;;;;;5074269;28;20199;-81
2022/07/26 07:57:54;;;;;;;10.80;10.50;;;24.60;99.90;;;;;;5080133;28;20250;-81
2022/07/26 08:00:30;;;;;;;11.00;10.70;;;24.60;99.90;;;;;;5080067;28;20224;-81
2022/07/26 08:03:00;;;;;;;11.05;10.75;;;24.40;99.90;;;;;;5080397;28;20227;-80
2022/07/26 08:08:17;;;;;;;10.40;10.10;;;24.30;99.90;;;;;;5079972;28;20294;-79
2022/07/26 08:10:47;;;;;;;10.80;10.50;;;24.10;99.90;;;;;;5069711;28;20234;-80
2022/07/26 08:13:17;;;;;;;10.73;10.43;;;24.00;99.90;;;;;;5054516;28;20238;-81
2022/07/26 08:15:47;;;;;;;10.63;10.32;;;24.00;99.90;;;;;;5061255;28;20226;-82
2022/07/26 08:18:15;;;;;;;10.98;10.68;;;24.10;99.90;;;;;;5062088;28;20318;-82
2022/07/26 08:21:20;;;;;;;10.68;10.38;;;24.20;99.90;;;;;;5061659;28;20238;-82
2022/07/26 08:23:59;;;;;;;10.77;10.48;;;24.30;99.90;;;;;;5055022;28;21194;-83
2022/07/26 08:27:06;;;;;;;10.68;10.38;;;24.50;99.90;;;;;;5060628;28;20237;-83
2022/07/26 08:33:57;;;;;;;10.60;10.30;;;24.90;99.90;;;;;;4999472;28;20270;-81
2022/07/26 08:36:27;;;;;;;10.93;10.63;;;25.00;99.90;;;;;;4997417;28;20233;-86
2022/07/26 08:39:06;;;;;;;10.80;10.50;;;25.20;99.90;;;;;;5024482;28;20243;-86
2022/07/26 08:41:51;;;;;;;10.68;10.38;;;25.10;99.90;;;;;;5056135;28;20240;-85
2022/07/26 08:44:21;;;;;;;10.90;10.60;;;25.10;99.90;;;;;;5060652;28;20269;-85
2022/07/26 08:46:49;;;;;;;10.50;10.20;;;25.00;99.90;;;;;;5059838;28;20300;-85
2022/07/26 08:49:20;;;;;;;10.52;10.23;;;24.70;99.90;;;;;;5060041;28;20286;-86
2022/07/26 08:51:58;;;;;;;10.40;10.10;;;24.50;99.90;;;;;;5060536;28;20290;-87
2022/07/26 08:54:26;;;;;;;10.38;10.07;;;24.60;99.90;;;;;;5059839;28;20231;-88
2022/07/26 08:57:06;;;;;;;10.52;10.23;;;24.80;99.90;;;;;;5059638;28;20219;-89
2022/07/26 08:59:33;;;;;;;10.65;10.35;;;24.90;99.90;;;;;;5070805;28;20294;-88
2022/07/26 09:02:04;;;;;;;10.63;10.32;;;25.00;99.90;;;;;;5066610;28;20250;-87
2022/07/26 09:04:35;;;;;;;10.80;10.50;;;25.20;99.90;;;;;;5061588;28;20308;-88
2022/07/26 09:07:10;;;;;;;10.75;10.45;;;25.50;99.90;;;;;;5060759;28;20218;-89
2022/07/26 09:09:57;;;;;;;10.50;10.20;;;25.60;99.90;;;;;;5059639;28;20242;-89
2022/07/26 09:12:27;;;;;;;10.30;10.00;;;25.70;99.90;;;;;;5059792;28;20304;-89
2022/07/26 09:14:57;;;;;;;10.25;9.95;;;25.80;99.90;;;;;;5059597;28;20257;-89
2022/07/26 09:17:46;;;;;;;10.23;9.93;;;26.10;99.90;;;;;;5059453;28;20226;-87
2022/07/26 09:20:17;;;;;;;10.25;9.95;;;26.00;99.90;;;;;;5059798;28;20243;-90
2022/07/26 09:23:06;;;;;;;10.65;10.35;;;25.70;99.90;;;;;;5056469;28;20258;-88
2022/07/26 09:25:40;;;;;;;10.65;10.35;;;25.50;99.90;;;;;;5042288;28;20235;-88
2022/07/26 09:28:27;;;;;;;11.02;10.73;;;25.60;99.90;;;;;;5039747;28;20230;-89
2022/07/26 09:30:57;;;;;;;10.85;10.55;;;25.70;99.90;;;;;;5040487;28;20703;-90
2022/07/26 09:33:26;;;;;;;10.80;10.50;;;25.90;99.90;;;;;;5056098;28;20243;-88
2022/07/26 09:36:04;;;;;;;10.70;10.40;;;25.50;99.90;;;;;;5059226;28;20226;-89
2022/07/26 09:38:51;;;;;;;10.40;10.10;;;25.40;99.90;;;;;;5060700;28;20227;-88
2022/07/26 09:41:20;;;;;;;10.40;10.10;;;25.20;99.90;;;;;;5061158;28;20234;-89
2022/07/26 09:43:50;;;;;;;10.45;10.15;;;25.30;99.90;;;;;;5065071;28;20265;-89
2022/07/26 09:46:20;;;;;;;10.57;10.27;;;25.80;99.90;;;;;;5079145;28;20203;-91
2022/07/26 09:48:49;;;;;;;10.68;10.38;;;26.30;99.90;;;;;;5079732;28;20226;-90
2022/07/26 09:51:36;;;;;;;10.73;10.43;;;26.80;99.90;;;;;;5079948;28;20226;-90
2022/07/26 09:54:16;;;;;;;10.73;10.43;;;27.00;99.90;;;;;;5082998;28;20253;-89
2022/07/26 09:57:11;;;;;;;10.80;10.50;;;27.10;99.90;;;;;;5081872;28;20214;-88
2022/07/26 09:59:39;;;;;;;10.60;10.30;;;26.50;99.90;;;;;;5079769;28;20229;-89
2022/07/26 10:02:19;;;;;;;10.38;10.07;;;26.00;99.90;;;;;;5067887;28;20223;-90
2022/07/26 10:16:33;;;;;;;10.10;9.80;;;26.00;99.90;;;;;;5058906;28;20242;-85
2022/07/26 10:19:03;;;;;;;10.20;9.90;;;26.40;99.90;;;;;;5037964;28;20240;-86
2022/07/26 10:21:31;;;;;;;10.05;9.75;;;26.40;99.90;;;;;;5022424;28;20235;-87
2022/07/26 10:24:01;;;;;;;10.77;10.48;;;26.70;99.90;;;;;;5023882;28;20225;-85
2022/07/26 10:26:46;;;;;;;10.98;10.68;;;27.10;99.90;;;;;;5031836;28;20295;-85
2022/07/26 10:29:26;;;;;;;10.90;10.60;;;27.00;99.90;;;;;;5032078;28;20238;-88
2022/07/26 10:32:19;;;;;;;10.90;10.60;;;26.50;99.90;;;;;;5027905;28;20243;-86
2022/07/26 10:34:49;;;;;;;10.75;10.45;;;26.00;99.90;;;;;;5025238;28;20224;-87
2022/07/26 10:37:29;;;;;;;11.05;10.75;;;26.20;99.90;;;;;;5025031;28;20236;-86
2022/07/26 10:40:24;;;;;;;10.88;10.57;;;26.40;99.90;;;;;;5059745;22;20246;-83
2022/07/26 10:42:51;;;;;;;11.00;10.70;;;26.70;99.90;;;;;;5040318;28;20319;-81
2022/07/26 10:45:24;;;;;;;11.13;10.82;;;27.00;99.90;;;;;;5030711;28;20216;-83
2022/07/26 10:48:25;;;;;;;11.18;10.88;;;27.40;99.90;;;;;;5032581;28;20315;-83
2022/07/26 10:50:54;;;;;;;11.25;10.95;;;28.20;99.90;;;;;;4980529;28;20241;-83
2022/07/26 10:53:25;;;;;;;11.35;11.05;;;28.20;99.90;;;;;;4979387;28;20426;-82
2022/07/26 10:55:54;;;;;;;11.10;10.80;;;28.10;99.90;;;;;;4991285;28;20288;-83
2022/07/26 10:58:23;;;;;;;11.10;10.80;;;28.10;99.90;;;;;;5015194;28;20240;-81
2022/07/26 11:01:00;;;;;;;11.30;11.00;;;28.20;99.90;;;;;;5006769;28;20260;-81
2022/07/26 11:03:38;;;;;;;10.88;10.57;;;28.30;99.90;;;;;;5001691;28;20224;-83
2022/07/26 11:06:14;;;;;;;10.77;10.48;;;28.00;99.90;;;;;;5003026;28;20256;-80
2022/07/26 11:08:43;;;;;;;10.88;10.57;;;27.70;99.90;;;;;;5002314;28;20244;-80
2022/07/26 11:11:11;;;;;;;10.85;10.55;;;27.50;99.90;;;;;;5002532;28;20239;-80
2022/07/26 11:13:39;;;;;;;10.75;10.45;;;27.60;99.90;;;;;;5002466;28;20318;-80
2022/07/26 11:16:09;;;;;;;10.48;10.18;;;27.50;99.90;;;;;;5002895;28;20239;-80
2022/07/26 11:18:39;;;;;;;10.52;10.23;;;27.70;99.90;;;;;;5001923;28;20301;-80
2022/07/26 11:21:12;;;;;;;10.68;10.38;;;27.80;99.90;;;;;;5000481;28;20343;-79
2022/07/26 11:23:42;;;;;;;10.88;10.57;;;27.80;99.90;;;;;;5000108;28;20228;-80
2022/07/26 11:26:17;;;;;;;10.70;10.40;;;28.00;99.90;;;;;;4999404;28;20225;-79
2022/07/26 11:28:54;;;;;;;10.80;10.50;;;28.10;99.90;;;;;;5000030;28;20238;-80
2022/07/26 11:31:27;;;;;;;10.70;10.40;;;28.20;99.90;;;;;;5000180;28;20236;-79
2022/07/26 11:33:56;;;;;;;10.93;10.63;;;27.90;99.90;;;;;;5000388;28;20259;-80
2022/07/26 11:36:49;;;;;;;10.57;10.27;;;27.80;99.90;;;;;;4999902;28;20229;-79
2022/07/26 11:39:22;;;;;;;10.60;10.30;;;27.40;99.90;;;;;;4980114;28;20247;-80
2022/07/26 11:41:51;;;;;;;10.40;10.10;;;27.00;99.90;;;;;;4998868;28;20233;-80
2022/07/26 11:44:20;;;;;;;10.60;10.30;;;26.70;99.90;;;;;;4999172;28;20228;-79
2022/07/26 11:46:50;;;;;;;10.70;10.40;;;26.70;99.90;;;;;;4998859;28;20235;-79
2022/07/26 11:49:21;;;;;;;10.80;10.50;;;27.00;99.90;;;;;;4998973;28;20295;-80
2022/07/26 11:51:54;;;;;;;10.68;10.38;;;27.50;99.90;;;;;;4998985;28;20236;-79
2022/07/26 11:54:23;;;;;;;10.50;10.20;;;28.10;99.90;;;;;;4999613;28;20244;-80
2022/07/26 11:56:54;;;;;;;10.57;10.27;;;28.00;99.90;;;;;;4999068;28;20237;-79
2022/07/26 11:59:22;;;;;;;10.50;10.20;;;27.40;99.90;;;;;;4998664;28;20235;-80
2022/07/26 12:01:51;;;;;;;10.65;10.35;;;27.80;99.90;;;;;;5000234;28;20336;-79
2022/07/26 12:04:23;;;;;;;11.00;10.70;;;28.00;99.90;;;;;;4999802;28;20237;-80
2022/07/26 12:06:51;;;;;;;10.88;10.57;;;28.30;99.90;;;;;;4999765;28;20229;-79
2022/07/26 12:09:33;;;;;;;10.95;10.65;;;28.60;99.90;;;;;;4998329;28;20233;-79
2022/07/26 12:12:02;;;;;;;10.63;10.32;;;28.80;99.90;;;;;;4999450;28;20235;-80
2022/07/26 12:14:32;;;;;;;10.38;10.07;;;28.70;99.90;;;;;;4999984;28;20237;-80
2022/07/26 12:17:11;;;;;;;10.70;10.40;;;28.40;99.90;;;;;;4999719;28;20237;-80
2022/07/26 12:19:40;;;;;;;10.77;10.48;;;28.00;99.90;;;;;;5002491;28;20264;-80
2022/07/26 12:22:13;;;;;;;10.88;10.57;;;27.70;99.90;;;;;;5003235;28;20316;-80
2022/07/26 12:24:46;;;;;;;11.10;10.80;;;27.40;99.90;;;;;;5002886;28;20259;-80
2022/07/26 12:27:18;;;;;;;10.95;10.65;;;27.20;99.90;;;;;;5004164;28;20359;-79
2022/07/26 12:29:47;;;;;;;10.80;10.50;;;27.30;99.90;;;;;;5002934;28;20240;-80
2022/07/26 12:32:19;;;;;;;11.20;10.90;;;27.30;99.90;;;;;;5003048;28;20287;-80
2022/07/26 12:34:59;;;;;;;10.95;10.65;;;27.20;99.90;;;;;;5008364;28;20295;-80
2022/07/26 12:37:30;;;;;;;10.95;10.65;;;27.50;99.90;;;;;;5010251;28;20224;-80
2022/07/26 12:40:06;;;;;;;11.15;10.85;;;28.20;99.90;;;;;;5015444;28;20241;-80
2022/07/26 12:42:37;;;;;;;11.13;10.82;;;28.30;99.90;;;;;;5012732;28;21115;-80
2022/07/26 12:45:08;;;;;;;11.38;11.07;;;28.30;99.90;;;;;;5004634;28;20233;-80
2022/07/26 12:47:36;;;;;;;11.35;11.05;;;28.40;99.90;;;;;;5005191;28;20319;-81
2022/07/26 12:50:07;;;;;;;11.40;11.10;;;28.30;99.90;;;;;;5002281;28;20264;-80
2022/07/26 12:52:35;;;;;;;11.02;10.73;;;28.40;99.90;;;;;;5002133;28;20312;-80
2022/07/26 12:55:07;;;;;;;11.20;10.90;;;28.60;99.90;;;;;;5003102;28;20236;-80
2022/07/26 12:57:34;;;;;;;11.15;10.85;;;28.30;99.90;;;;;;5002002;28;20297;-80
2022/07/26 13:00:02;;;;;;;10.95;10.65;;;28.40;99.90;;;;;;5000312;28;20298;-80
2022/07/26 13:02:30;;;;;;;11.00;10.70;;;28.60;99.90;;;;;;5000661;28;20236;-80
2022/07/26 13:04:57;;;;;;;11.05;10.75;;;29.00;99.90;;;;;;5002567;28;20227;-80
2022/07/26 13:07:26;;;;;;;11.10;10.80;;;29.40;99.90;;;;;;5002485;28;20216;-80
2022/07/26 13:09:54;;;;;;;11.30;11.00;;;29.20;99.90;;;;;;4999959;28;20240;-79
2022/07/26 13:12:21;;;;;;;11.13;10.82;;;29.30;99.90;;;;;;5001452;28;20319;-79
2022/07/26 13:14:50;;;;;;;11.40;11.10;;;29.60;99.90;;;;;;5000849;28;20228;-79
2022/07/26 13:17:17;;;;;;;11.18;10.88;;;30.00;99.90;;;;;;5003043;28;20260;-79
2022/07/26 13:19:45;;;;;;;11.10;10.80;;;30.20;99.90;;;;;;5006621;28;20237;-80
2022/07/26 13:22:13;;;;;;;11.50;11.20;;;30.10;99.90;;;;;;5012371;28;20240;-80
2022/07/26 13:24:42;;;;;;;11.52;11.13;;;30.20;99.90;;;;;;5011624;28;20243;-80
2022/07/26 13:27:09;;;;;;;11.30;11.00;;;30.20;99.90;;;;;;5010202;28;20276;-79
2022/07/26 13:29:38;;;;;;;11.40;11.10;;;30.30;99.90;;;;;;5013207;28;20244;-80
2022/07/26 13:32:06;;;;;;;11.35;11.05;;;30.70;99.90;;;;;;5016439;28;20233;-80
2022/07/26 13:34:34;;;;;;;11.30;11.00;;;30.80;99.90;;;;;;5014984;28;20260;-80
2022/07/26 13:37:02;;;;;;;11.30;11.00;;;30.70;99.90;;;;;;5013948;28;20288;-80
2022/07/26 13:39:29;;;;;;;11.30;11.00;;;30.40;99.90;;;;;;5014616;28;20324;-80
2022/07/26 13:41:58;;;;;;;11.27;10.98;;;30.00;99.90;;;;;;5019520;28;20228;-79
2022/07/26 13:44:26;;;;;;;11.25;10.95;;;29.90;99.90;;;;;;5019711;28;20212;-80
2022/07/26 13:46:53;;;;;;;11.20;10.90;;;29.60;99.90;;;;;;5016100;28;20263;-80
2022/07/26 13:49:21;;;;;;;11.23;10.93;;;29.10;99.90;;;;;;5012854;28;20261;-80
2022/07/26 13:51:58;;;;;;;11.40;11.10;;;28.60;99.90;;;;;;5013332;28;20252;-79
2022/07/26 13:54:28;;;;;;;10.90;10.60;;;27.90;99.90;;;;;;5011022;28;20240;-80
2022/07/26 13:56:58;;;;;;;10.70;10.40;;;28.00;99.90;;;;;;5011146;28;20233;-81
2022/07/26 13:59:26;;;;;;;10.73;10.43;;;28.30;99.90;;;;;;5014196;28;20233;-79
2022/07/26 14:01:55;;;;;;;10.80;10.50;;;28.30;99.90;;;;;;5014307;28;20248;-80